createdAt,value
2022-09-22T00:02:16.896Z,102637.03
2022-09-22T00:04:43.429Z,102644.94
2022-09-22T00:07:10.018Z,102639.53
2022-09-22T00:09:36.478Z,102615.59
2022-09-22T00:12:03.009Z,102631.00
2022-09-22T00:14:29.664Z,102625.81
2022-09-22T00:16:59.345Z,102625.94
2022-09-22T00:19:31.721Z,102624.16
2022-09-22T00:21:58.932Z,102622.63
2022-09-22T00:24:26.966Z,102611.44
2022-09-22T00:26:57.493Z,102631.31
2022-09-22T00:29:29.089Z,102620.91
2022-09-22T00:31:56.513Z,102612.28
2022-09-22T00:34:25.251Z,102632.44
2022-09-22T00:36:52.082Z,102623.88
2022-09-22T00:39:19.206Z,102633.53
2022-09-22T00:41:49.218Z,102620.41
2022-09-22T00:44:21.590Z,102630.97
2022-09-22T00:47:11.283Z,102621.53
2022-09-22T00:49:45.980Z,102620.53
2022-09-22T00:52:19.513Z,102618.94
2022-09-22T00:54:46.442Z,102604.22
2022-09-22T00:57:22.484Z,102616.28
2022-09-22T00:59:51.235Z,102614.63
2022-09-22T01:02:17.948Z,102607.59
2022-09-22T01:04:45.778Z,102601.75
2022-09-22T01:07:13.119Z,102600.00
2022-09-22T01:09:39.746Z,102599.38
2022-09-22T01:12:06.789Z,102600.41
2022-09-22T01:15:04.961Z,102596.91
2022-09-22T01:18:08.392Z,102586.53
2022-09-22T01:21:07.969Z,102597.88
2022-09-22T01:24:19.394Z,102585.66
2022-09-22T01:27:00.814Z,102584.19
2022-09-22T01:29:45.895Z,102596.50
2022-09-22T01:32:19.446Z,102589.75
2022-09-22T01:34:48.685Z,102581.06
2022-09-22T01:37:25.782Z,102578.78
2022-09-22T01:40:00.239Z,102584.09
2022-09-22T01:42:37.007Z,102574.41
2022-09-22T01:45:09.783Z,102586.59
2022-09-22T01:47:52.183Z,102582.97
2022-09-22T01:50:36.104Z,102584.75
2022-09-22T01:53:08.562Z,102583.75
2022-09-22T01:55:39.065Z,102577.00
2022-09-22T01:58:10.693Z,102573.50
2022-09-22T02:00:40.849Z,102567.44
2022-09-22T02:03:21.270Z,102568.38
2022-09-22T02:06:02.815Z,102566.59
2022-09-22T02:08:32.671Z,102567.63
2022-09-22T02:11:07.838Z,102532.13
2022-09-22T02:13:34.351Z,102558.00
2022-09-22T02:16:00.887Z,102554.59
2022-09-22T02:18:45.524Z,102530.38
2022-09-22T02:21:13.822Z,102536.41
2022-09-22T02:23:41.237Z,102548.78
2022-09-22T02:26:08.670Z,102534.84
2022-09-22T02:28:38.703Z,102530.53
2022-09-22T02:31:23.036Z,102502.97
2022-09-22T02:33:51.912Z,102530.66
2022-09-22T02:37:06.468Z,102536.56
2022-09-22T02:39:47.420Z,102533.25
2022-09-22T02:42:34.015Z,102528.06
2022-09-22T02:45:11.949Z,102529.13
2022-09-22T02:47:46.999Z,102531.69
2022-09-22T02:50:17.358Z,102504.16
2022-09-22T02:52:43.852Z,102528.34
2022-09-22T02:55:11.190Z,102521.81
2022-09-22T02:57:37.803Z,102524.44
2022-09-22T03:00:05.565Z,102524.34
2022-09-22T03:02:32.272Z,102505.41
2022-09-22T03:04:58.975Z,102512.38
2022-09-22T03:07:25.482Z,102510.94
2022-09-22T03:09:52.112Z,102528.41
2022-09-22T03:12:18.920Z,102513.50
2022-09-22T03:14:45.470Z,102510.94
2022-09-22T03:17:11.904Z,102507.44
2022-09-22T03:19:38.541Z,102506.34
2022-09-22T03:22:05.040Z,102492.72
2022-09-22T03:24:31.556Z,102504.84
2022-09-22T03:26:58.287Z,102504.84
2022-09-22T03:29:24.788Z,102495.31
2022-09-22T03:31:51.264Z,102502.28
2022-09-22T03:34:17.749Z,102492.75
2022-09-22T03:36:44.259Z,102497.97
2022-09-22T03:39:10.684Z,102508.53
2022-09-22T03:41:37.736Z,102497.16
2022-09-22T03:44:06.087Z,102507.72
2022-09-22T03:46:32.738Z,102506.88
2022-09-22T03:48:59.425Z,102491.38
2022-09-22T03:51:26.416Z,102501.91
2022-09-22T03:53:54.417Z,102510.56
2022-09-22T03:56:20.878Z,102492.56
2022-09-22T03:58:47.368Z,102502.97
2022-09-22T04:01:13.892Z,102497.84
2022-09-22T04:03:41.060Z,102503.88
2022-09-22T04:06:07.909Z,102507.34
2022-09-22T04:08:34.469Z,102496.03
2022-09-22T04:11:03.203Z,102499.53
2022-09-22T04:13:29.842Z,102496.88
2022-09-22T04:15:56.394Z,102480.28
2022-09-22T04:18:23.100Z,102488.13
2022-09-22T04:20:49.645Z,102477.03
2022-09-22T04:23:17.213Z,102487.56
2022-09-22T04:25:43.728Z,102479.75
2022-09-22T04:28:10.231Z,102480.72
2022-09-22T04:30:37.526Z,102458.19
2022-09-22T04:33:04.336Z,102478.22
2022-09-22T04:35:31.007Z,102486.75
2022-09-22T04:37:58.138Z,102478.19
2022-09-22T04:40:25.678Z,102479.03
2022-09-22T04:42:52.681Z,102469.59
2022-09-22T04:45:19.215Z,102475.66
2022-09-22T04:47:46.796Z,102481.00
2022-09-22T04:50:13.656Z,102477.50
2022-09-22T04:52:45.318Z,102484.34
2022-09-22T04:55:11.869Z,102470.66
2022-09-22T04:57:38.584Z,102470.69
2022-09-22T05:00:05.974Z,102478.47
2022-09-22T05:02:33.909Z,102489.03
2022-09-22T05:05:00.359Z,102469.94
2022-09-22T05:07:26.794Z,102483.94
2022-09-22T05:09:53.378Z,102477.88
2022-09-22T05:12:20.412Z,102483.22
2022-09-22T05:14:46.890Z,102505.06
2022-09-22T05:17:14.126Z,102488.59
2022-09-22T05:19:40.872Z,102499.06
2022-09-22T05:22:07.321Z,102490.38
2022-09-22T05:24:33.918Z,102482.53
2022-09-22T05:27:00.366Z,102492.94
2022-09-22T05:29:28.111Z,102498.19
2022-09-22T05:31:55.029Z,102499.19
2022-09-22T05:34:21.746Z,102487.06
2022-09-22T05:36:48.264Z,102485.50
2022-09-22T05:39:14.782Z,102489.75
2022-09-22T05:41:41.269Z,102494.84
2022-09-22T05:44:07.712Z,102486.06
2022-09-22T05:46:34.270Z,102481.66
2022-09-22T05:49:00.833Z,102485.78
2022-09-22T05:51:27.397Z,102477.19
2022-09-22T05:53:54.063Z,102504.88
2022-09-22T05:56:20.487Z,102468.31
2022-09-22T05:58:47.908Z,102491.31
2022-09-22T06:01:14.565Z,102493.97
2022-09-22T06:03:41.424Z,102492.97
2022-09-22T06:06:07.884Z,102470.47
2022-09-22T06:08:34.458Z,102484.91
2022-09-22T06:11:01.199Z,102489.94
2022-09-22T06:13:27.778Z,102446.59
2022-09-22T06:15:54.308Z,102497.47
2022-09-22T06:18:24.591Z,102491.91
2022-09-22T06:20:51.461Z,102491.56
2022-09-22T06:23:18.036Z,102489.78
2022-09-22T06:25:44.531Z,102486.09
2022-09-22T06:28:14.129Z,102495.53
2022-09-22T06:30:41.119Z,102490.19
2022-09-22T06:33:08.284Z,102492.47
2022-09-22T06:35:37.940Z,102479.22
2022-09-22T06:38:07.074Z,102475.41
2022-09-22T06:40:36.543Z,102486.47
2022-09-22T06:43:11.926Z,102481.16
2022-09-22T06:45:39.703Z,102481.03
2022-09-22T06:48:10.028Z,102466.44
2022-09-22T06:50:38.392Z,102490.56
2022-09-22T06:53:11.235Z,102488.72
2022-09-22T06:55:38.168Z,102492.16
2022-09-22T06:58:04.970Z,102483.44
2022-09-22T07:00:32.767Z,102484.91
2022-09-22T07:03:18.156Z,102481.09
2022-09-22T07:06:01.741Z,102497.47
2022-09-22T07:08:31.080Z,102475.56
2022-09-22T07:11:00.817Z,102488.16
2022-09-22T07:13:29.834Z,102454.28
2022-09-22T07:16:04.851Z,102487.66
2022-09-22T07:18:31.419Z,102489.03
2022-09-22T07:21:12.334Z,102485.81
2022-09-22T07:23:40.823Z,102479.41
2022-09-22T07:26:11.751Z,102476.34
2022-09-22T07:28:38.918Z,102477.09
2022-09-22T07:31:08.035Z,102462.63
2022-09-22T07:33:38.270Z,102465.47
2022-09-22T07:36:10.813Z,102481.44
2022-09-22T07:38:42.366Z,102465.19
2022-09-22T07:41:12.120Z,102467.13
2022-09-22T07:43:39.467Z,102472.50
2022-09-22T07:46:06.395Z,102465.66
2022-09-22T07:48:36.443Z,102461.56
2022-09-22T07:51:12.954Z,102474.56
2022-09-22T07:53:42.387Z,102453.97
2022-09-22T07:56:14.923Z,102473.81
2022-09-22T07:58:53.535Z,102473.38
2022-09-22T08:01:22.793Z,102476.50
2022-09-22T08:03:50.549Z,102470.56
2022-09-22T08:06:23.617Z,102466.47
2022-09-22T08:08:55.309Z,102464.56
2022-09-22T08:11:24.196Z,102454.06
2022-09-22T08:13:53.765Z,102440.75
2022-09-22T08:16:22.945Z,102465.97
2022-09-22T08:18:52.947Z,102462.63
2022-09-22T08:21:19.606Z,102460.50
2022-09-22T08:23:46.122Z,102459.91
2022-09-22T08:26:12.687Z,102453.03
2022-09-22T08:28:39.153Z,102405.03
2022-09-22T08:31:12.413Z,102458.38
2022-09-22T08:33:40.794Z,102441.47
2022-09-22T08:36:07.624Z,102446.06
2022-09-22T08:38:34.415Z,102417.34
2022-09-22T08:41:39.452Z,102446.28
2022-09-22T08:44:10.787Z,102454.03
2022-09-22T08:46:41.324Z,102449.38
2022-09-22T08:49:44.814Z,102449.59
2022-09-22T08:52:35.649Z,102446.63
2022-09-22T08:55:03.213Z,102444.91
2022-09-22T08:58:04.328Z,102447.78
2022-09-22T09:00:42.512Z,102432.41
2022-09-22T09:03:28.429Z,102444.22
2022-09-22T09:06:25.288Z,102436.28
2022-09-22T09:09:22.757Z,102437.38
2022-09-22T09:12:01.030Z,102443.19
2022-09-22T09:14:33.341Z,102452.13
2022-09-22T09:17:03.673Z,102449.34
2022-09-22T09:19:47.005Z,102439.66
2022-09-22T09:22:24.886Z,102435.84
2022-09-22T09:25:24.938Z,102443.03
2022-09-22T09:28:01.257Z,102436.41
2022-09-22T09:30:51.998Z,102434.16
2022-09-22T09:33:40.419Z,102444.47
2022-09-22T09:36:22.940Z,102423.25
2022-09-22T09:38:54.253Z,102437.88
2022-09-22T09:41:32.418Z,102443.41
2022-09-22T09:44:00.345Z,102440.34
2022-09-22T09:46:34.518Z,102439.13
2022-09-22T09:49:14.385Z,102446.97
2022-09-22T09:51:44.919Z,102440.72
2022-09-22T09:54:17.592Z,102439.09
2022-09-22T09:57:06.708Z,102440.81
2022-09-22T09:59:53.334Z,102431.28
2022-09-22T10:02:29.782Z,102427.31
2022-09-22T10:05:00.731Z,102432.38
2022-09-22T10:10:32.754Z,102431.81
2022-09-22T10:13:05.441Z,102427.66
2022-09-22T10:15:37.265Z,102415.72
2022-09-22T10:18:23.685Z,102421.38
2022-09-22T10:21:16.769Z,102424.34
2022-09-22T10:23:48.366Z,102416.94
2022-09-22T10:26:19.256Z,102419.41
2022-09-22T10:29:05.646Z,102412.94
2022-09-22T10:31:32.894Z,102394.19
2022-09-22T10:34:00.622Z,102387.97
2022-09-22T10:36:30.842Z,102395.69
2022-09-22T10:38:59.722Z,102391.66
2022-09-22T10:41:31.554Z,102395.00
2022-09-22T10:44:34.571Z,102391.56
2022-09-22T10:47:12.171Z,102395.22
2022-09-22T10:50:04.937Z,102378.16
2022-09-22T10:52:53.570Z,102377.28
2022-09-22T10:55:30.522Z,102386.94
2022-09-22T10:58:09.102Z,102382.44
2022-09-22T11:00:39.372Z,102378.88
2022-09-22T11:03:28.914Z,102369.31
2022-09-22T11:07:02.235Z,102364.38
2022-09-22T11:09:53.477Z,102365.09
2022-09-22T11:12:36.888Z,102368.28
2022-09-22T11:15:28.020Z,102368.13
2022-09-22T11:18:06.228Z,102369.44
2022-09-22T11:20:44.842Z,102363.31
2022-09-22T11:23:49.314Z,102370.41
2022-09-22T11:26:41.562Z,102358.59
2022-09-22T11:29:35.153Z,102363.25
2022-09-22T11:32:30.505Z,102355.00
2022-09-22T11:35:12.385Z,102355.91
2022-09-22T11:38:14.344Z,102351.47
2022-09-22T11:40:40.860Z,102347.66
2022-09-22T11:43:42.030Z,102348.50
2022-09-22T11:46:17.387Z,102349.69
2022-09-22T11:49:05.882Z,102345.22
2022-09-22T11:51:39.021Z,102342.16
2022-09-22T11:54:05.601Z,102331.34
2022-09-22T11:56:49.165Z,102333.34
2022-09-22T11:59:39.654Z,102339.06
2022-09-22T12:02:42.259Z,102332.03
2022-09-22T12:05:26.950Z,102312.72
2022-09-22T12:07:59.689Z,102289.06
2022-09-22T12:10:35.089Z,102302.22
2022-09-22T12:13:04.470Z,102307.78
2022-09-22T12:15:31.001Z,102310.25
2022-09-22T12:18:16.611Z,102288.72
2022-09-22T12:21:06.729Z,102283.97
2022-09-22T12:23:40.176Z,102273.03
2022-09-22T12:26:09.884Z,102277.03
2022-09-22T12:28:45.761Z,102286.31
2022-09-22T12:31:15.311Z,102270.56
2022-09-22T12:33:48.884Z,102271.78
2022-09-22T12:36:17.160Z,102265.16
2022-09-22T12:38:45.540Z,102254.59
2022-09-22T12:41:18.367Z,102239.84
2022-09-22T12:43:45.951Z,102253.34
2022-09-22T12:46:24.546Z,102262.59
2022-09-22T12:48:51.646Z,102247.19
2022-09-22T12:51:25.003Z,102253.16
2022-09-22T12:53:52.208Z,102248.16
2022-09-22T12:56:40.369Z,102251.25
2022-09-22T12:59:35.790Z,102255.06
2022-09-22T13:02:11.548Z,102249.00
2022-09-22T13:04:38.562Z,102239.13
2022-09-22T13:07:25.129Z,102230.47
2022-09-22T13:10:23.913Z,102243.81
2022-09-22T13:13:11.790Z,102242.84
2022-09-22T13:15:44.142Z,102228.81
2022-09-22T13:18:39.220Z,102228.09
2022-09-22T13:21:15.029Z,102229.22
2022-09-22T13:23:53.780Z,102219.88
2022-09-22T13:26:40.956Z,102214.31
2022-09-22T13:29:11.830Z,102219.56
2022-09-22T13:31:46.878Z,102223.97
2022-09-22T13:34:35.360Z,102218.56
2022-09-22T13:37:19.538Z,102202.94
2022-09-22T13:39:49.632Z,102215.69
2022-09-22T13:42:33.192Z,102210.88
2022-09-22T13:45:10.489Z,102202.09
2022-09-22T13:47:37.651Z,102196.38
2022-09-22T13:50:13.748Z,102198.88
2022-09-22T13:52:41.572Z,102200.91
2022-09-22T13:55:37.270Z,102181.03
2022-09-22T13:58:06.984Z,102190.91
2022-09-22T14:01:08.587Z,102192.84
2022-09-22T14:03:36.304Z,102186.56
2022-09-22T14:06:03.021Z,102172.31
2022-09-22T14:08:31.378Z,102153.13
2022-09-22T14:10:59.740Z,102182.38
2022-09-22T14:13:56.213Z,102180.41
2022-09-22T14:16:25.971Z,102183.53
2022-09-22T14:19:08.832Z,102165.97
2022-09-22T14:21:50.520Z,102172.44
2022-09-22T14:24:17.405Z,102166.03
2022-09-22T14:26:51.301Z,102168.72
2022-09-22T14:29:27.029Z,102168.59
2022-09-22T14:32:02.773Z,102163.13
2022-09-22T14:34:32.831Z,102163.13
2022-09-22T14:37:09.727Z,102167.50
2022-09-22T14:39:40.887Z,102139.03
2022-09-22T14:42:20.027Z,102163.81
2022-09-22T14:44:50.006Z,102154.03
2022-09-22T14:47:28.414Z,102155.88
2022-09-22T14:50:20.390Z,102151.94
2022-09-22T14:52:51.670Z,102154.63
2022-09-22T14:55:50.335Z,102152.53
2022-09-22T14:58:23.802Z,102137.06
2022-09-22T15:01:18.773Z,102147.25
2022-09-22T15:03:55.849Z,102133.88
2022-09-22T15:06:22.397Z,102126.72
2022-09-22T15:08:51.988Z,102127.53
2022-09-22T15:11:21.370Z,102126.31
2022-09-22T15:13:50.804Z,102133.00
2022-09-22T15:16:37.719Z,102131.66
2022-09-22T15:19:05.401Z,102137.00
2022-09-22T15:21:37.030Z,102087.00
2022-09-22T15:24:05.547Z,102112.06
2022-09-22T15:26:32.913Z,102123.91
2022-09-22T15:29:01.650Z,102110.81
2022-09-22T15:31:29.735Z,102111.00
2022-09-22T15:33:59.986Z,102121.81
2022-09-22T15:36:28.623Z,102114.44
2022-09-22T15:38:59.702Z,102117.63
2022-09-22T15:41:27.445Z,102102.09
2022-09-22T15:43:54.130Z,102119.09
2022-09-22T15:46:33.957Z,102101.72
2022-09-22T15:49:06.526Z,102113.09
2022-09-22T15:51:33.371Z,102105.03
2022-09-22T15:54:00.064Z,102100.88
2022-09-22T15:56:29.730Z,102084.47
2022-09-22T15:58:59.318Z,102095.63
2022-09-22T16:01:29.548Z,102090.94
2022-09-22T16:04:00.480Z,102105.56
2022-09-22T16:06:27.271Z,102103.94
2022-09-22T16:08:55.348Z,102085.56
2022-09-22T16:11:32.307Z,102101.72
2022-09-22T16:14:01.155Z,102093.97
2022-09-22T16:16:29.396Z,102101.03
2022-09-22T16:18:56.695Z,102072.78
2022-09-22T16:21:33.302Z,102091.41
2022-09-22T16:24:03.977Z,102095.00
2022-09-22T16:26:31.754Z,102081.03
2022-09-22T16:28:58.880Z,102089.66
2022-09-22T16:31:25.752Z,102070.13
2022-09-22T16:33:56.789Z,102082.44
2022-09-22T16:36:26.162Z,102088.25
2022-09-22T16:38:53.074Z,102082.88
2022-09-22T16:41:31.062Z,102059.03
2022-09-22T16:43:58.177Z,102080.44
2022-09-22T16:46:29.885Z,102085.56
2022-09-22T16:49:00.231Z,102078.38
2022-09-22T16:51:27.841Z,102080.22
2022-09-22T16:53:54.350Z,102075.44
2022-09-22T16:56:22.971Z,102087.97
2022-09-22T16:58:49.590Z,102086.66
2022-09-22T17:01:19.753Z,102086.22
2022-09-22T17:03:49.603Z,102076.81
2022-09-22T17:06:18.294Z,102080.69
2022-09-22T17:08:45.901Z,102075.72
2022-09-22T17:11:17.399Z,102088.00
2022-09-22T17:13:44.922Z,102080.81
2022-09-22T17:16:30.825Z,102079.56
2022-09-22T17:19:03.259Z,102086.38
2022-09-22T17:21:34.074Z,102073.16
2022-09-22T17:24:01.831Z,102082.41
2022-09-22T17:26:34.570Z,102083.03
2022-09-22T17:29:01.979Z,102076.94
2022-09-22T17:31:31.266Z,102073.53
2022-09-22T17:33:58.423Z,102074.44
2022-09-22T17:36:26.354Z,102068.59
2022-09-22T17:38:58.628Z,102066.06
2022-09-22T17:41:33.476Z,102059.13
2022-09-22T17:44:03.042Z,102068.72
2022-09-22T17:46:32.397Z,102062.31
2022-09-22T17:49:18.289Z,102069.34
2022-09-22T17:52:09.060Z,102069.50
2022-09-22T17:54:59.645Z,102074.41
2022-09-22T17:57:29.266Z,102064.31
2022-09-22T17:59:56.921Z,102076.97
2022-09-22T18:02:29.142Z,102067.53
2022-09-22T18:04:55.834Z,102035.53
2022-09-22T18:07:26.371Z,102075.06
2022-09-22T18:09:56.411Z,102071.91
2022-09-22T18:12:24.770Z,102046.69
2022-09-22T18:14:53.214Z,102071.78
2022-09-22T18:17:22.846Z,102068.00
2022-09-22T18:19:49.412Z,102059.56
2022-09-22T18:22:21.047Z,102061.75
2022-09-22T18:24:52.339Z,102066.50
2022-09-22T18:27:21.568Z,102054.53
2022-09-22T18:29:53.243Z,102059.28
2022-09-22T18:32:20.830Z,102063.66
2022-09-22T18:34:48.064Z,102059.03
2022-09-22T18:37:17.617Z,102025.72
2022-09-22T18:39:45.565Z,102033.75
2022-09-22T18:42:13.529Z,102059.97
2022-09-22T18:44:43.758Z,102074.34
2022-09-22T18:47:14.439Z,102065.19
2022-09-22T18:49:40.895Z,102077.47
2022-09-22T18:52:08.645Z,102054.16
2022-09-22T18:54:42.916Z,102064.69
2022-09-22T18:57:13.262Z,102069.59
2022-09-22T18:59:40.141Z,102065.16
2022-09-22T19:02:11.304Z,102068.81
2022-09-22T19:04:38.884Z,102061.03
2022-09-22T19:07:23.957Z,102073.31
2022-09-22T19:09:52.499Z,102057.34
2022-09-22T19:12:20.414Z,102072.34
2022-09-22T19:14:49.893Z,102065.50
2022-09-22T19:17:17.571Z,102053.91
2022-09-22T19:19:49.054Z,102065.31
2022-09-22T19:22:16.250Z,102072.38
2022-09-22T19:24:45.017Z,102064.78
2022-09-22T19:27:13.983Z,102062.34
2022-09-22T19:29:40.842Z,102083.63
2022-09-22T19:32:07.627Z,102069.13
2022-09-22T19:34:34.318Z,102070.91
2022-09-22T19:37:00.913Z,102066.56
2022-09-22T19:39:27.487Z,102071.03
2022-09-22T19:41:54.945Z,102077.34
2022-09-22T19:44:22.506Z,102073.81
2022-09-22T19:46:50.114Z,102074.13
2022-09-22T19:49:17.251Z,102056.97
2022-09-22T19:51:43.802Z,102059.31
2022-09-22T19:54:10.735Z,102067.75
2022-09-22T19:56:37.394Z,102021.66
2022-09-22T19:59:07.331Z,102065.44
2022-09-22T20:01:39.616Z,102056.88
2022-09-22T20:04:06.495Z,102042.16
2022-09-22T20:06:33.717Z,102045.22
2022-09-22T20:09:03.111Z,102036.69
2022-09-22T20:11:35.480Z,102048.97
2022-09-22T20:14:20.502Z,102039.03
2022-09-22T20:16:52.657Z,102045.34
2022-09-22T20:19:20.520Z,102058.16
2022-09-22T20:21:47.727Z,102044.69
2022-09-22T20:24:19.325Z,102033.91
2022-09-22T20:26:46.534Z,102032.00
2022-09-22T20:29:15.717Z,102044.06
2022-09-22T20:31:42.994Z,102035.97
2022-09-22T20:34:14.185Z,102041.91
2022-09-22T20:36:43.196Z,102035.41
2022-09-22T20:39:15.173Z,102044.16
2022-09-22T20:41:42.684Z,102042.53
2022-09-22T20:44:15.013Z,102042.34
2022-09-22T20:46:42.559Z,102039.16
2022-09-22T20:49:13.676Z,102034.66
2022-09-22T20:51:41.259Z,102035.06
2022-09-22T20:54:08.330Z,102023.75
2022-09-22T20:56:38.308Z,102020.44
2022-09-22T20:59:07.707Z,102028.22
2022-09-22T21:01:34.655Z,102015.94
2022-09-22T21:04:01.413Z,102020.72
2022-09-22T21:06:28.020Z,102023.97
2022-09-22T21:09:13.318Z,102030.19
2022-09-22T21:11:39.934Z,102031.25
2022-09-22T21:14:07.142Z,102011.94
2022-09-22T21:16:36.161Z,102012.03
2022-09-22T21:19:03.857Z,102010.78
2022-09-22T21:21:32.157Z,102015.13
2022-09-22T21:24:01.945Z,102015.34
2022-09-22T21:26:29.740Z,102009.75
2022-09-22T21:28:56.639Z,102004.63
2022-09-22T21:31:23.371Z,101985.63
2022-09-22T21:33:50.476Z,101995.88
2022-09-22T21:36:19.421Z,101978.13
2022-09-22T21:38:48.314Z,102007.56
2022-09-22T21:41:20.645Z,101993.72
2022-09-22T21:43:48.636Z,102000.66
2022-09-22T21:46:17.614Z,101984.72
2022-09-22T21:48:45.043Z,101997.00
2022-09-22T21:51:14.669Z,101980.47
2022-09-22T21:53:44.034Z,101983.03
2022-09-22T21:56:12.346Z,101982.56
2022-09-22T21:58:41.574Z,101982.88
2022-09-22T22:01:10.699Z,101982.41
2022-09-22T22:03:42.170Z,101971.09
2022-09-22T22:06:18.227Z,101973.13
2022-09-22T22:08:48.249Z,101980.97
2022-09-22T22:11:25.374Z,101983.66
2022-09-22T22:13:56.659Z,101971.88
2022-09-22T22:16:25.788Z,101972.50
2022-09-22T22:18:52.407Z,101969.75
2022-09-22T22:21:22.967Z,101969.53
2022-09-22T22:23:52.301Z,101969.34
2022-09-22T22:26:24.057Z,101956.81
2022-09-22T22:28:51.713Z,101954.91
2022-09-22T22:31:23.095Z,101969.06
2022-09-22T22:33:49.990Z,101967.56
2022-09-22T22:36:18.318Z,101974.88
2022-09-22T22:38:45.763Z,101962.06
2022-09-22T22:41:15.131Z,101942.28
2022-09-22T22:43:42.326Z,101956.84
2022-09-22T22:46:11.181Z,101959.50
2022-09-22T22:48:38.068Z,101952.94
2022-09-22T22:51:11.459Z,101947.72
2022-09-22T22:53:38.326Z,101945.56
2022-09-22T22:56:12.100Z,101937.84
2022-09-22T22:58:42.860Z,101939.06
2022-09-22T23:01:13.407Z,101946.41
2022-09-22T23:03:41.272Z,101934.63
2022-09-22T23:06:14.055Z,101922.38
2022-09-22T23:08:41.448Z,101932.44
2022-09-22T23:11:16.226Z,101932.72
2022-09-22T23:13:50.937Z,101921.63
2022-09-22T23:16:20.769Z,101922.91
2022-09-22T23:18:48.266Z,101925.56
2022-09-22T23:21:16.138Z,101919.03
2022-09-22T23:23:43.575Z,101899.84
2022-09-22T23:26:12.173Z,101923.13
2022-09-22T23:28:39.510Z,101917.03
2022-09-22T23:31:22.256Z,101913.72
2022-09-22T23:33:50.949Z,101915.41
2022-09-22T23:36:22.836Z,101911.06
2022-09-22T23:38:53.632Z,101901.28
2022-09-22T23:41:20.177Z,101903.16
2022-09-22T23:43:46.786Z,101899.84
2022-09-22T23:46:13.395Z,101893.50
2022-09-22T23:48:40.214Z,101907.44
2022-09-22T23:51:06.740Z,101908.50
2022-09-22T23:53:36.601Z,101912.09
2022-09-22T23:56:04.701Z,101906.22
2022-09-22T23:58:31.791Z,101906.50
